createdAt,value
2023-05-19T00:00:09.428Z,11.10
2023-05-19T00:02:39.788Z,11.06
2023-05-19T00:05:10.563Z,11.09
2023-05-19T00:07:40.728Z,11.07
2023-05-19T00:10:11.998Z,11.06
2023-05-19T00:12:40.254Z,11.02
2023-05-19T00:15:10.808Z,11.02
2023-05-19T00:17:42.595Z,11.09
2023-05-19T00:20:12.853Z,11.18
2023-05-19T00:22:41.360Z,11.07
2023-05-19T00:25:10.244Z,11.06
2023-05-19T00:27:38.778Z,10.95
2023-05-19T00:30:08.247Z,11.03
2023-05-19T00:32:36.778Z,11.05
2023-05-19T00:35:07.086Z,11.06
2023-05-19T00:37:35.151Z,11.01
2023-05-19T00:40:05.728Z,10.77
2023-05-19T00:42:33.936Z,10.98
2023-05-19T00:45:01.918Z,11.01
2023-05-19T00:47:29.957Z,10.94
2023-05-19T00:49:58.010Z,10.88
2023-05-19T00:52:28.011Z,10.42
2023-05-19T00:54:57.260Z,10.57
2023-05-19T00:57:26.130Z,10.69
2023-05-19T00:59:54.282Z,10.47
2023-05-19T01:02:22.588Z,10.45
2023-05-19T01:04:51.951Z,10.47
2023-05-19T01:07:21.249Z,10.43
2023-05-19T01:09:50.889Z,10.43
2023-05-19T01:12:19.351Z,10.44
2023-05-19T01:14:47.427Z,10.40
2023-05-19T01:17:23.273Z,10.35
2023-05-19T01:20:08.161Z,10.23
2023-05-19T01:22:55.117Z,10.04
2023-05-19T01:25:44.317Z,10.18
2023-05-19T01:28:46.879Z,10.24
2023-05-19T01:31:18.252Z,10.11
2023-05-19T01:33:47.753Z,10.09
2023-05-19T01:36:16.593Z,10.04
2023-05-19T01:38:45.397Z,10.11
2023-05-19T01:41:14.205Z,9.93
2023-05-19T01:43:42.549Z,9.90
2023-05-19T01:46:11.269Z,9.85
2023-05-19T01:48:40.840Z,9.92
2023-05-19T01:51:08.859Z,9.77
2023-05-19T01:53:36.898Z,9.76
2023-05-19T01:56:06.789Z,9.76
2023-05-19T01:58:42.918Z,9.67
2023-05-19T02:01:21.860Z,9.58
2023-05-19T02:04:19.860Z,9.58
2023-05-19T02:06:56.248Z,9.40
2023-05-19T02:09:29.702Z,9.48
2023-05-19T02:12:04.451Z,9.44
2023-05-19T02:14:36.735Z,9.44
2023-05-19T02:17:06.464Z,9.47
2023-05-19T02:19:38.176Z,9.57
2023-05-19T02:22:07.119Z,9.43
2023-05-19T02:24:35.197Z,9.62
2023-05-19T02:27:03.317Z,9.59
2023-05-19T02:29:31.337Z,9.74
2023-05-19T02:32:00.150Z,9.72
2023-05-19T02:34:28.256Z,9.65
2023-05-19T02:36:57.863Z,9.57
2023-05-19T02:39:26.476Z,9.61
2023-05-19T02:41:54.483Z,9.67
2023-05-19T02:44:22.457Z,9.74
2023-05-19T02:46:50.534Z,9.81
2023-05-19T02:49:18.592Z,9.73
2023-05-19T02:51:46.599Z,9.74
2023-05-19T02:54:15.933Z,9.64
2023-05-19T02:56:43.941Z,9.77
2023-05-19T02:59:11.938Z,9.76
2023-05-19T03:01:40.594Z,9.60
2023-05-19T03:04:08.744Z,9.78
2023-05-19T03:06:36.801Z,9.81
2023-05-19T03:09:04.931Z,9.72
2023-05-19T03:11:34.308Z,9.69
2023-05-19T03:14:03.057Z,9.52
2023-05-19T03:16:31.589Z,9.75
2023-05-19T03:19:00.293Z,9.67
2023-05-19T03:21:28.410Z,9.58
2023-05-19T03:23:56.432Z,9.66
2023-05-19T03:26:24.672Z,9.62
2023-05-19T03:28:54.380Z,9.48
2023-05-19T03:31:22.396Z,9.48
2023-05-19T03:33:50.443Z,9.62
2023-05-19T03:36:18.689Z,9.57
2023-05-19T03:38:46.697Z,9.50
2023-05-19T03:41:14.770Z,9.45
2023-05-19T03:43:42.818Z,9.29
2023-05-19T03:46:12.197Z,9.52
2023-05-19T03:48:40.176Z,9.51
2023-05-19T03:51:09.174Z,9.38
2023-05-19T03:53:38.048Z,9.44
2023-05-19T03:56:07.699Z,9.41
2023-05-19T03:58:37.109Z,9.38
2023-05-19T04:01:05.104Z,9.39
2023-05-19T04:03:34.464Z,9.28
2023-05-19T04:06:02.527Z,9.28
2023-05-19T04:08:30.489Z,9.29
2023-05-19T04:10:58.533Z,9.28
2023-05-19T04:13:26.523Z,9.26
2023-05-19T04:15:54.636Z,9.27
2023-05-19T04:18:22.667Z,9.28
2023-05-19T04:20:52.403Z,9.21
2023-05-19T04:23:20.371Z,9.31
2023-05-19T04:25:48.846Z,9.26
2023-05-19T04:28:18.014Z,9.13
2023-05-19T04:30:46.802Z,9.20
2023-05-19T04:33:14.927Z,9.15
2023-05-19T04:35:43.922Z,9.27
2023-05-19T04:38:13.299Z,9.22
2023-05-19T04:40:42.341Z,9.23
2023-05-19T04:43:11.537Z,9.49
2023-05-19T04:45:42.727Z,9.25
2023-05-19T04:48:10.831Z,9.30
2023-05-19T04:50:42.308Z,9.24
2023-05-19T04:53:11.600Z,9.25
2023-05-19T04:55:41.014Z,9.21
2023-05-19T04:58:09.148Z,9.40
2023-05-19T05:00:38.999Z,9.41
2023-05-19T05:03:08.158Z,9.48
2023-05-19T05:05:36.321Z,9.45
2023-05-19T05:08:04.539Z,9.51
2023-05-19T05:10:32.935Z,9.50
2023-05-19T05:13:03.181Z,9.53
2023-05-19T05:15:31.756Z,9.59
2023-05-19T05:18:00.479Z,9.45
2023-05-19T05:20:29.623Z,9.55
2023-05-19T05:22:59.227Z,9.52
2023-05-19T05:25:28.712Z,9.68
2023-05-19T05:27:59.300Z,9.50
2023-05-19T05:30:28.684Z,9.71
2023-05-19T05:32:57.562Z,9.84
2023-05-19T05:35:26.412Z,9.98
2023-05-19T05:37:55.247Z,10.18
2023-05-19T05:40:23.447Z,10.34
2023-05-19T05:42:51.439Z,10.24
2023-05-19T05:45:19.556Z,10.50
2023-05-19T05:47:49.658Z,10.57
2023-05-19T05:50:18.785Z,10.74
2023-05-19T05:52:48.445Z,11.02
2023-05-19T05:55:18.544Z,11.24
2023-05-19T05:57:49.032Z,11.33
2023-05-19T06:00:18.055Z,11.41
2023-05-19T06:02:47.698Z,11.59
2023-05-19T06:05:17.425Z,11.65
2023-05-19T06:07:51.495Z,11.51
2023-05-19T06:10:20.285Z,11.47
2023-05-19T06:12:49.190Z,11.85
2023-05-19T06:15:17.994Z,11.63
2023-05-19T06:17:46.083Z,11.69
2023-05-19T06:20:16.391Z,11.37
2023-05-19T06:22:44.344Z,12.03
2023-05-19T06:25:12.340Z,11.75
2023-05-19T06:27:40.302Z,12.07
2023-05-19T06:30:09.760Z,12.20
2023-05-19T06:32:37.773Z,12.38
2023-05-19T06:35:06.818Z,12.50
2023-05-19T06:37:36.176Z,12.67
2023-05-19T06:40:05.718Z,12.72
2023-05-19T06:42:33.681Z,12.89
2023-05-19T06:45:01.610Z,12.85
2023-05-19T06:47:29.635Z,12.72
2023-05-19T06:50:00.698Z,12.84
2023-05-19T06:52:28.772Z,12.97
2023-05-19T06:54:58.115Z,12.83
2023-05-19T06:57:26.106Z,12.73
2023-05-19T06:59:54.158Z,12.73
2023-05-19T07:02:22.137Z,12.77
2023-05-19T07:04:51.504Z,12.82
2023-05-19T07:07:19.541Z,12.76
2023-05-19T07:09:47.547Z,12.96
2023-05-19T07:12:16.911Z,13.00
2023-05-19T07:14:46.180Z,13.25
2023-05-19T07:17:14.915Z,13.09
2023-05-19T07:19:46.284Z,13.20
2023-05-19T07:22:15.001Z,13.27
2023-05-19T07:24:43.011Z,13.04
2023-05-19T07:27:11.036Z,13.52
2023-05-19T07:29:40.423Z,13.49
2023-05-19T07:32:08.754Z,13.48
2023-05-19T07:34:36.889Z,13.91
2023-05-19T07:37:05.047Z,13.72
2023-05-19T07:39:33.046Z,13.99
2023-05-19T07:42:01.025Z,13.87
2023-05-19T07:44:31.382Z,14.16
2023-05-19T07:47:00.859Z,14.21
2023-05-19T07:49:30.001Z,14.34
2023-05-19T07:51:58.758Z,14.50
2023-05-19T07:54:27.537Z,14.33
2023-05-19T07:56:55.518Z,14.69
2023-05-19T07:59:24.393Z,14.70
2023-05-19T08:01:52.370Z,14.86
2023-05-19T08:04:21.776Z,14.64
2023-05-19T08:06:49.834Z,14.92
2023-05-19T08:09:17.765Z,14.93
2023-05-19T08:11:46.983Z,15.39
2023-05-19T08:14:14.916Z,15.14
2023-05-19T08:16:44.026Z,15.33
2023-05-19T08:19:11.992Z,15.48
2023-05-19T08:21:42.536Z,15.27
2023-05-19T08:24:10.520Z,15.27
2023-05-19T08:26:38.526Z,15.67
2023-05-19T08:29:06.485Z,15.90
2023-05-19T08:31:34.859Z,16.07
2023-05-19T08:34:03.626Z,16.25
2023-05-19T08:36:31.724Z,16.05
2023-05-19T08:39:01.095Z,15.86
2023-05-19T08:41:29.023Z,16.00
2023-05-19T08:43:57.026Z,15.60
2023-05-19T08:46:26.806Z,16.16
2023-05-19T08:49:00.132Z,16.30
2023-05-19T08:51:34.895Z,16.50
2023-05-19T08:54:14.017Z,16.03
2023-05-19T08:56:44.400Z,16.51
2023-05-19T08:59:14.517Z,16.78
2023-05-19T09:01:45.845Z,16.45
2023-05-19T09:04:14.513Z,17.07
2023-05-19T09:06:45.318Z,16.82
2023-05-19T09:09:15.631Z,17.03
2023-05-19T09:11:47.234Z,17.19
2023-05-19T09:14:15.218Z,17.01
2023-05-19T09:16:43.551Z,17.02
2023-05-19T09:19:16.562Z,16.80
2023-05-19T09:21:45.935Z,17.12
2023-05-19T09:24:15.365Z,17.25
2023-05-19T09:26:44.165Z,17.03
2023-05-19T09:29:13.016Z,17.29
2023-05-19T09:31:41.103Z,17.00
2023-05-19T09:34:14.116Z,17.22
2023-05-19T09:36:42.653Z,17.07
2023-05-19T09:39:18.559Z,17.50
2023-05-19T09:41:46.859Z,17.31
2023-05-19T09:44:22.492Z,17.19
2023-05-19T09:46:50.779Z,17.20
2023-05-19T09:49:22.986Z,17.42
2023-05-19T09:51:52.330Z,17.09
2023-05-19T09:54:23.844Z,17.49
2023-05-19T09:57:00.018Z,17.54
2023-05-19T09:59:31.512Z,17.49
2023-05-19T10:02:02.502Z,17.58
2023-05-19T10:04:31.737Z,17.48
2023-05-19T10:07:00.636Z,17.24
2023-05-19T10:09:31.136Z,17.47
2023-05-19T10:12:00.288Z,17.37
2023-05-19T10:14:29.938Z,17.59
2023-05-19T10:16:59.254Z,17.46
2023-05-19T10:19:29.931Z,17.58
2023-05-19T10:21:58.721Z,17.54
2023-05-19T10:24:27.468Z,17.45
2023-05-19T10:27:02.620Z,17.73
2023-05-19T10:29:34.573Z,17.58
2023-05-19T10:32:10.037Z,17.18
2023-05-19T10:34:59.425Z,17.46
2023-05-19T10:37:35.891Z,17.85
2023-05-19T10:40:10.814Z,18.16
2023-05-19T10:42:53.374Z,18.38
2023-05-19T10:45:24.002Z,18.43
2023-05-19T10:47:52.563Z,18.33
2023-05-19T10:50:21.766Z,18.51
2023-05-19T10:52:55.750Z,18.97
2023-05-19T10:55:49.023Z,18.69
2023-05-19T10:58:38.318Z,18.52
2023-05-19T11:01:10.035Z,18.29
2023-05-19T11:03:49.553Z,17.77
2023-05-19T11:06:28.407Z,17.99
2023-05-19T11:08:58.945Z,17.93
2023-05-19T11:11:26.934Z,17.96
2023-05-19T11:13:57.304Z,18.16
2023-05-19T11:16:29.746Z,18.44
2023-05-19T11:19:00.190Z,17.92
2023-05-19T11:21:43.115Z,18.18
2023-05-19T11:24:11.426Z,18.46
2023-05-19T11:26:43.708Z,18.27
2023-05-19T11:29:13.618Z,17.86
2023-05-19T11:31:44.775Z,18.42
2023-05-19T11:34:13.957Z,18.65
2023-05-19T11:36:44.015Z,18.60
2023-05-19T11:39:13.637Z,18.75
2023-05-19T11:41:41.778Z,19.04
2023-05-19T11:44:13.092Z,18.85
2023-05-19T11:46:41.139Z,18.96
2023-05-19T11:49:09.247Z,18.45
2023-05-19T11:51:38.498Z,18.94
2023-05-19T11:54:06.719Z,18.79
2023-05-19T11:56:35.969Z,18.61
2023-05-19T11:59:03.952Z,18.89
2023-05-19T12:01:34.089Z,18.38
2023-05-19T12:04:02.346Z,18.31
2023-05-19T12:06:31.200Z,18.23
2023-05-19T12:09:00.115Z,18.21
2023-05-19T12:11:29.598Z,18.44
2023-05-19T12:14:00.005Z,18.29
2023-05-19T12:16:36.032Z,18.27
2023-05-19T12:19:07.251Z,18.59
2023-05-19T12:21:35.581Z,18.97
2023-05-19T12:24:04.179Z,19.20
2023-05-19T12:26:32.176Z,19.11
2023-05-19T12:29:00.303Z,18.91
2023-05-19T12:31:28.437Z,18.86
2023-05-19T12:33:58.606Z,18.91
2023-05-19T12:36:27.256Z,19.22
2023-05-19T12:38:56.240Z,19.24
2023-05-19T12:41:27.554Z,19.19
2023-05-19T12:43:59.464Z,19.34
2023-05-19T12:46:27.663Z,18.74
2023-05-19T12:49:26.731Z,18.92
2023-05-19T12:51:56.774Z,19.02
2023-05-19T12:54:25.196Z,18.93
2023-05-19T12:56:54.008Z,18.60
2023-05-19T12:59:37.433Z,18.76
2023-05-19T13:02:06.374Z,18.66
2023-05-19T13:04:34.580Z,18.92
2023-05-19T13:07:04.043Z,18.93
2023-05-19T13:09:35.157Z,18.56
2023-05-19T13:12:04.873Z,17.97
2023-05-19T13:14:32.923Z,18.69
2023-05-19T13:17:00.987Z,18.57
2023-05-19T13:19:29.279Z,18.55
2023-05-19T13:21:57.519Z,18.32
2023-05-19T13:24:27.034Z,18.45
2023-05-19T13:26:56.103Z,18.21
2023-05-19T13:29:24.183Z,18.16
2023-05-19T13:31:52.176Z,18.02
2023-05-19T13:34:21.388Z,17.97
2023-05-19T13:36:49.655Z,18.09
2023-05-19T13:39:20.480Z,18.32
2023-05-19T13:41:50.691Z,17.89
2023-05-19T13:44:20.060Z,18.09
2023-05-19T13:46:49.856Z,18.06
2023-05-19T13:49:20.855Z,18.03
2023-05-19T13:51:49.064Z,18.24
2023-05-19T13:54:19.234Z,18.32
2023-05-19T13:56:53.095Z,18.31
2023-05-19T13:59:21.816Z,17.97
2023-05-19T14:01:49.944Z,18.08
2023-05-19T14:04:19.514Z,18.24
2023-05-19T14:06:47.887Z,18.23
2023-05-19T14:09:16.521Z,17.91
2023-05-19T14:11:44.574Z,17.64
2023-05-19T14:14:13.978Z,17.47
2023-05-19T14:16:42.441Z,17.92
2023-05-19T14:19:11.356Z,17.83
2023-05-19T14:21:39.478Z,17.87
2023-05-19T14:24:08.046Z,17.79
2023-05-19T14:26:36.095Z,17.86
2023-05-19T14:29:04.859Z,17.53
2023-05-19T14:31:34.515Z,17.22
2023-05-19T14:34:02.556Z,17.24
2023-05-19T14:36:31.923Z,17.30
2023-05-19T14:39:00.425Z,17.29
2023-05-19T14:41:29.984Z,17.29
2023-05-19T14:43:58.208Z,17.36
2023-05-19T14:46:27.392Z,17.25
2023-05-19T14:48:57.142Z,17.13
2023-05-19T14:51:25.139Z,17.03
2023-05-19T14:53:53.149Z,16.95
2023-05-19T14:56:23.150Z,17.19
2023-05-19T14:58:52.045Z,17.14
2023-05-19T15:01:20.096Z,17.08
2023-05-19T15:03:48.177Z,17.10
2023-05-19T15:06:17.624Z,16.99
2023-05-19T15:08:46.022Z,17.05
2023-05-19T15:11:14.018Z,16.92
2023-05-19T15:13:42.064Z,16.85
2023-05-19T15:16:17.734Z,16.86
2023-05-19T15:18:46.625Z,17.06
2023-05-19T15:21:14.683Z,17.11
2023-05-19T15:23:44.102Z,16.74
2023-05-19T15:26:12.509Z,16.76
2023-05-19T15:28:40.771Z,16.69
2023-05-19T15:31:08.795Z,16.58
2023-05-19T15:33:36.961Z,16.41
2023-05-19T15:36:05.325Z,16.28
2023-05-19T15:38:37.426Z,16.50
2023-05-19T15:41:12.876Z,16.33
2023-05-19T15:43:41.596Z,16.37
2023-05-19T15:46:09.637Z,16.27
2023-05-19T15:48:37.683Z,16.41
2023-05-19T15:51:06.096Z,16.32
2023-05-19T15:53:34.086Z,16.35
2023-05-19T15:56:03.334Z,16.27
2023-05-19T15:58:34.047Z,16.19
2023-05-19T16:01:06.198Z,16.04
2023-05-19T16:03:37.573Z,16.00
2023-05-19T16:06:12.254Z,15.95
2023-05-19T16:08:40.351Z,15.96
2023-05-19T16:11:11.257Z,15.88
2023-05-19T16:13:41.138Z,15.84
2023-05-19T16:16:09.396Z,15.82
2023-05-19T16:18:37.804Z,15.84
2023-05-19T16:21:06.622Z,15.76
2023-05-19T16:23:34.676Z,15.71
2023-05-19T16:26:02.731Z,15.62
2023-05-19T16:28:30.676Z,15.66
2023-05-19T16:31:01.609Z,15.61
2023-05-19T16:33:30.334Z,15.59
2023-05-19T16:36:05.409Z,15.51
2023-05-19T16:38:40.682Z,15.50
2023-05-19T16:41:22.433Z,15.44
2023-05-19T16:43:53.620Z,15.23
2023-05-19T16:46:25.610Z,15.32
2023-05-19T16:48:55.344Z,15.20
2023-05-19T16:51:31.998Z,15.38
2023-05-19T16:54:04.312Z,15.31
2023-05-19T16:56:41.528Z,15.29
2023-05-19T16:59:28.434Z,15.25
2023-05-19T17:02:01.177Z,15.32
2023-05-19T17:04:31.169Z,15.21
2023-05-19T17:07:03.595Z,15.10
2023-05-19T17:09:50.855Z,15.23
2023-05-19T17:12:24.266Z,15.09
2023-05-19T17:14:54.281Z,15.01
2023-05-19T17:17:25.358Z,14.98
2023-05-19T17:20:00.189Z,15.02
2023-05-19T17:22:31.282Z,14.93
2023-05-19T17:25:00.840Z,14.91
2023-05-19T17:27:29.455Z,14.90
2023-05-19T17:30:00.840Z,14.90
2023-05-19T17:32:36.992Z,14.93
2023-05-19T17:35:07.069Z,14.85
2023-05-19T17:37:37.849Z,14.82
2023-05-19T17:40:11.204Z,14.91
2023-05-19T17:42:39.846Z,14.71
2023-05-19T17:45:12.998Z,14.71
2023-05-19T17:47:44.226Z,14.76
2023-05-19T17:50:15.445Z,14.75
2023-05-19T17:52:45.859Z,14.71
2023-05-19T17:55:19.008Z,14.66
2023-05-19T17:57:48.117Z,14.62
2023-05-19T18:00:18.079Z,14.57
2023-05-19T18:02:51.436Z,14.63
2023-05-19T18:05:22.196Z,14.67
2023-05-19T18:07:54.446Z,14.59
2023-05-19T18:10:31.068Z,14.51
2023-05-19T18:13:00.759Z,14.42
2023-05-19T18:15:32.044Z,14.38
2023-05-19T18:18:03.426Z,14.46
2023-05-19T18:20:34.209Z,14.42
2023-05-19T18:23:03.763Z,14.41
2023-05-19T18:25:31.798Z,14.35
2023-05-19T18:27:59.743Z,14.28
2023-05-19T18:30:27.808Z,14.23
2023-05-19T18:32:55.845Z,14.33
2023-05-19T18:35:25.284Z,14.25
2023-05-19T18:37:56.540Z,14.26
2023-05-19T18:40:25.023Z,14.29
2023-05-19T18:42:53.046Z,14.19
2023-05-19T18:45:21.093Z,14.11
2023-05-19T18:47:52.089Z,13.97
2023-05-19T18:50:20.766Z,14.11
2023-05-19T18:52:50.148Z,13.99
2023-05-19T18:55:18.271Z,13.92
2023-05-19T18:57:46.227Z,13.92
2023-05-19T19:00:15.103Z,13.82
2023-05-19T19:02:43.167Z,13.80
2023-05-19T19:05:11.341Z,13.67
2023-05-19T19:07:42.300Z,13.76
2023-05-19T19:10:12.793Z,13.79
2023-05-19T19:12:40.776Z,13.74
2023-05-19T19:15:09.696Z,13.75
2023-05-19T19:17:40.268Z,13.76
2023-05-19T19:20:10.008Z,13.73
2023-05-19T19:22:38.180Z,13.68
2023-05-19T19:25:06.969Z,13.73
2023-05-19T19:27:36.335Z,13.66
2023-05-19T19:30:07.986Z,13.55
2023-05-19T19:32:36.210Z,13.60
2023-05-19T19:35:04.392Z,13.40
2023-05-19T19:37:32.384Z,13.39
2023-05-19T19:40:03.332Z,13.42
2023-05-19T19:42:33.577Z,13.37
2023-05-19T19:45:03.912Z,13.25
2023-05-19T19:47:37.450Z,13.29
2023-05-19T19:50:10.146Z,13.23
2023-05-19T19:52:38.377Z,13.16
2023-05-19T19:55:07.464Z,13.08
2023-05-19T19:57:35.813Z,13.15
2023-05-19T20:00:08.364Z,13.08
2023-05-19T20:02:41.071Z,12.97
2023-05-19T20:05:14.319Z,13.11
2023-05-19T20:07:42.290Z,13.09
2023-05-19T20:10:12.606Z,13.14
2023-05-19T20:12:44.983Z,13.03
2023-05-19T20:15:18.823Z,13.15
2023-05-19T20:17:47.449Z,13.18
2023-05-19T20:20:16.884Z,13.12
2023-05-19T20:22:46.526Z,13.19
2023-05-19T20:25:15.777Z,13.22
2023-05-19T20:27:44.950Z,13.15
2023-05-19T20:30:15.674Z,13.08
2023-05-19T20:32:44.163Z,13.05
2023-05-19T20:35:18.376Z,13.04
2023-05-19T20:37:48.196Z,12.96
2023-05-19T20:40:16.937Z,13.03
2023-05-19T20:42:45.628Z,12.88
2023-05-19T20:45:16.145Z,12.98
2023-05-19T20:47:45.130Z,12.90
2023-05-19T20:50:16.422Z,12.89
2023-05-19T20:52:44.455Z,12.87
2023-05-19T20:55:13.507Z,12.96
2023-05-19T20:57:44.050Z,12.86
2023-05-19T21:00:13.462Z,12.84
2023-05-19T21:02:46.143Z,12.82
2023-05-19T21:05:14.909Z,12.81
2023-05-19T21:07:44.066Z,12.83
2023-05-19T21:10:14.285Z,12.79
2023-05-19T21:12:42.605Z,12.85
2023-05-19T21:15:11.508Z,12.85
2023-05-19T21:17:39.828Z,12.79
2023-05-19T21:20:14.724Z,12.83
2023-05-19T21:22:44.565Z,12.73
2023-05-19T21:25:12.873Z,12.74
2023-05-19T21:27:40.989Z,12.74
2023-05-19T21:30:10.843Z,12.76
2023-05-19T21:32:39.726Z,12.72
2023-05-19T21:35:11.706Z,12.59
2023-05-19T21:37:39.928Z,12.66
2023-05-19T21:40:10.439Z,12.55
2023-05-19T21:42:39.582Z,12.58
2023-05-19T21:45:09.876Z,12.48
2023-05-19T21:47:38.122Z,12.46
2023-05-19T21:50:07.460Z,12.10
2023-05-19T21:52:39.979Z,12.33
2023-05-19T21:55:11.225Z,12.25
2023-05-19T21:57:41.201Z,12.17
2023-05-19T22:00:15.970Z,12.09
2023-05-19T22:02:45.490Z,12.09
2023-05-19T22:05:13.920Z,11.98
2023-05-19T22:07:51.569Z,12.10
2023-05-19T22:10:19.798Z,12.04
2023-05-19T22:12:48.538Z,11.94
2023-05-19T22:15:17.023Z,11.87
2023-05-19T22:17:45.177Z,11.99
2023-05-19T22:20:14.150Z,11.93
2023-05-19T22:22:43.654Z,11.90
2023-05-19T22:25:11.899Z,11.88
2023-05-19T22:27:41.013Z,11.82
2023-05-19T22:30:13.406Z,11.73
2023-05-19T22:32:42.860Z,11.75
2023-05-19T22:35:15.988Z,11.70
2023-05-19T22:37:46.180Z,11.54
2023-05-19T22:40:14.629Z,11.59
2023-05-19T22:42:42.848Z,11.49
2023-05-19T22:45:12.516Z,11.55
2023-05-19T22:47:41.503Z,11.57
2023-05-19T22:50:11.405Z,11.59
2023-05-19T22:52:40.324Z,11.58
2023-05-19T22:55:10.972Z,11.66
2023-05-19T22:57:43.428Z,11.68
2023-05-19T23:00:14.693Z,11.60
2023-05-19T23:02:45.966Z,11.54
2023-05-19T23:05:14.887Z,11.64
2023-05-19T23:07:43.142Z,11.63
2023-05-19T23:10:13.857Z,11.63
2023-05-19T23:12:42.064Z,11.68
2023-05-19T23:15:11.193Z,11.72
2023-05-19T23:17:39.793Z,11.65
2023-05-19T23:20:09.704Z,11.72
2023-05-19T23:22:38.213Z,11.63
2023-05-19T23:25:07.993Z,11.67
2023-05-19T23:27:37.829Z,11.48
2023-05-19T23:30:07.009Z,11.61
2023-05-19T23:32:35.045Z,11.65
2023-05-19T23:35:11.640Z,11.72
2023-05-19T23:37:39.630Z,11.76
2023-05-19T23:40:09.169Z,11.85
2023-05-19T23:42:38.705Z,11.75
2023-05-19T23:45:08.336Z,11.76
2023-05-19T23:47:37.074Z,11.76
2023-05-19T23:50:05.620Z,11.73
2023-05-19T23:52:33.906Z,11.72
2023-05-19T23:55:03.413Z,11.59
2023-05-19T23:57:31.456Z,11.73
